Parnarama, Brazil
Current Conditions -  °F | °C
As of 3:00 PM on Saturday 22 Nov 2014 (Local Time) from SBTE Reporting Station
Scattered Clouds Scattered Clouds  
Wind Chill: 97°   Ceiling: Unl
Heat Index: 99°   Visibility: 6mi
Dew Point: 64°   Wind: 7mph
Humidity: 34%   Direction: 150°SSE
Pressure: 29.74"   Gusts: NA
Location:  5.68°S, 43.09°W
Report Text: SBTE 221800Z 15006KT 9999 SCT030 36/18 Q1007
Loading
Personal Weather Stations






























Interactive Weather Map New forecast layout! Learn more

10-Day Weather Forecast

Advertisements
Track Severe Weather on mobile